DWI200 TNCC-TNCA
Flight info
| Callsign | DWI200 |
|---|---|
| Flight time | 0h 23m |
| Altitude | 15000 |
| Route | ARUB1K ELUMO DCT DAVLA DCT BOMDA |
| Aircraft | B38M/M-SDE1FGHILORVWXY/HB1 |
Departure
| Time | 2026-05-06 01:26 |
|---|---|
| Airport | Hato International Airport (TNCC) |
Arrival
| Time | 2026-05-06 01:49 |
|---|---|
| Airport | Queen Beatrix International Airport (TNCA) |
| Time | Latitude | Longitude | Altitude | Speed | Heading |
|---|---|---|---|---|---|
| 2026-05-06 01:14 | 12.18525 | -68.95576 | 46 ft | 0 kts | 192° |
| 2026-05-06 01:15 | 12.18531 | -68.95575 | 46 ft | 4 kts | 193° |
| 2026-05-06 01:15 | 12.18557 | -68.95567 | 46 ft | 4 kts | 200° |
| 2026-05-06 01:15 | 12.18581 | -68.95555 | 45 ft | 4 kts | 211° |
| 2026-05-06 01:16 | 12.18602 | -68.95539 | 45 ft | 4 kts | 228° |
| 2026-05-06 01:16 | 12.18614 | -68.95517 | 45 ft | 4 kts | 270° |
| 2026-05-06 01:16 | 12.18614 | -68.95510 | 45 ft | 0 kts | 282° |
| 2026-05-06 01:19 | 12.18614 | -68.95514 | 45 ft | 2 kts | 282° |
| 2026-05-06 01:20 | 12.18624 | -68.95559 | 45 ft | 11 kts | 282° |
| 2026-05-06 01:20 | 12.18643 | -68.95651 | 45 ft | 15 kts | 282° |
| 2026-05-06 01:20 | 12.18668 | -68.95766 | 42 ft | 18 kts | 282° |
| 2026-05-06 01:20 | 12.18697 | -68.95903 | 45 ft | 21 kts | 282° |
| 2026-05-06 01:21 | 12.18730 | -68.96059 | 45 ft | 24 kts | 282° |
| 2026-05-06 01:21 | 12.18766 | -68.96236 | 45 ft | 27 kts | 282° |
| 2026-05-06 01:21 | 12.18807 | -68.96432 | 45 ft | 30 kts | 282° |
| 2026-05-06 01:21 | 12.18851 | -68.96642 | 44 ft | 29 kts | 283° |
| 2026-05-06 01:22 | 12.18905 | -68.96800 | 42 ft | 16 kts | 329° |
| 2026-05-06 01:22 | 12.18970 | -68.96804 | 43 ft | 0 kts | 10° |
| 2026-05-06 01:23 | 12.18990 | -68.96800 | 43 ft | 9 kts | 10° |
| 2026-05-06 01:24 | 12.19057 | -68.96754 | 44 ft | 14 kts | 77° |
| 2026-05-06 01:24 | 12.19036 | -68.96662 | 45 ft | 8 kts | 102° |
| 2026-05-06 01:24 | 12.19035 | -68.96661 | 45 ft | 0 kts | 102° |
| 2026-05-06 01:25 | 12.18987 | -68.96439 | 45 ft | 75 kts | 101° |
| 2026-05-06 01:25 | 12.18822 | -68.95637 | 43 ft | 152 kts | 101° |
| 2026-05-06 01:25 | 12.18577 | -68.94393 | 241 ft | 202 kts | 101° |
| 2026-05-06 01:26 | 12.18260 | -68.92843 | 749 ft | 240 kts | 101° |
| 2026-05-06 01:26 | 12.17884 | -68.91123 | 1735 ft | 253 kts | 102° |
| 2026-05-06 01:26 | 12.17470 | -68.89290 | 2462 ft | 276 kts | 103° |
| 2026-05-06 01:26 | 12.16753 | -68.87706 | 3565 ft | 220 kts | 131° |
| 2026-05-06 01:27 | 12.15370 | -68.86994 | 4483 ft | 237 kts | 168° |
| 2026-05-06 01:27 | 12.13677 | -68.87320 | 5419 ft | 265 kts | 204° |
| 2026-05-06 01:27 | 12.12235 | -68.88595 | 6264 ft | 287 kts | 230° |
| 2026-05-06 01:27 | 12.11257 | -68.90413 | 7240 ft | 295 kts | 241° |
| 2026-05-06 01:28 | 12.10314 | -68.92286 | 8279 ft | 298 kts | 239° |
| 2026-05-06 01:28 | 12.09343 | -68.94162 | 9298 ft | 300 kts | 239° |
| 2026-05-06 01:28 | 12.08354 | -68.96050 | 10236 ft | 305 kts | 239° |
| 2026-05-06 01:28 | 12.07320 | -68.98005 | 10873 ft | 321 kts | 239° |
| 2026-05-06 01:29 | 12.06496 | -69.00187 | 11488 ft | 338 kts | 259° |
| 2026-05-06 01:29 | 12.06515 | -69.02622 | 12204 ft | 352 kts | 281° |
| 2026-05-06 01:29 | 12.07237 | -69.05050 | 12925 ft | 361 kts | 288° |
| 2026-05-06 01:29 | 12.07998 | -69.07488 | 13712 ft | 367 kts | 287° |
| 2026-05-06 01:30 | 12.08776 | -69.09983 | 14564 ft | 372 kts | 288° |
| 2026-05-06 01:30 | 12.09570 | -69.12524 | 14913 ft | 376 kts | 288° |
| 2026-05-06 01:30 | 12.10378 | -69.15106 | 14975 ft | 390 kts | 288° |
| 2026-05-06 01:30 | 12.11223 | -69.17807 | 14974 ft | 407 kts | 288° |
| 2026-05-06 01:31 | 12.12101 | -69.20617 | 14977 ft | 424 kts | 288° |
| 2026-05-06 01:31 | 12.13003 | -69.23504 | 14984 ft | 430 kts | 288° |
| 2026-05-06 01:31 | 12.13917 | -69.26431 | 14995 ft | 434 kts | 288° |
| 2026-05-06 01:31 | 12.14835 | -69.29368 | 15006 ft | 434 kts | 288° |
| 2026-05-06 01:32 | 12.15752 | -69.32309 | 15012 ft | 435 kts | 288° |
| 2026-05-06 01:32 | 12.16673 | -69.35260 | 15011 ft | 435 kts | 288° |
| 2026-05-06 01:32 | 12.17589 | -69.38197 | 15014 ft | 435 kts | 287° |
| 2026-05-06 01:32 | 12.18507 | -69.41142 | 15014 ft | 434 kts | 287° |
| 2026-05-06 01:33 | 12.19424 | -69.44083 | 15009 ft | 434 kts | 288° |
| 2026-05-06 01:33 | 12.20334 | -69.47007 | 15005 ft | 434 kts | 288° |
| 2026-05-06 01:33 | 12.21244 | -69.49928 | 14686 ft | 429 kts | 287° |
| 2026-05-06 01:33 | 12.22146 | -69.52825 | 13958 ft | 426 kts | 287° |
| 2026-05-06 01:34 | 12.23038 | -69.55694 | 13391 ft | 421 kts | 288° |
| 2026-05-06 01:34 | 12.23919 | -69.58526 | 12836 ft | 416 kts | 288° |
| 2026-05-06 01:34 | 12.24793 | -69.61335 | 12318 ft | 411 kts | 288° |
| 2026-05-06 01:34 | 12.25651 | -69.64096 | 11806 ft | 406 kts | 288° |
| 2026-05-06 01:35 | 12.26508 | -69.66809 | 11460 ft | 393 kts | 288° |
| 2026-05-06 01:35 | 12.27359 | -69.69397 | 11265 ft | 379 kts | 288° |
| 2026-05-06 01:35 | 12.28180 | -69.71907 | 11090 ft | 367 kts | 288° |
| 2026-05-06 01:35 | 12.28978 | -69.74350 | 10904 ft | 357 kts | 288° |
| 2026-05-06 01:36 | 12.29751 | -69.76719 | 10738 ft | 346 kts | 288° |
| 2026-05-06 01:36 | 12.30496 | -69.79004 | 10606 ft | 333 kts | 288° |
| 2026-05-06 01:36 | 12.31207 | -69.81184 | 10426 ft | 323 kts | 288° |
| 2026-05-06 01:36 | 12.31907 | -69.83331 | 10263 ft | 313 kts | 288° |
| 2026-05-06 01:37 | 12.32583 | -69.85402 | 10098 ft | 302 kts | 288° |
| 2026-05-06 01:37 | 12.33238 | -69.87416 | 9898 ft | 295 kts | 288° |
| 2026-05-06 01:37 | 12.33883 | -69.89397 | 9583 ft | 292 kts | 288° |
| 2026-05-06 01:37 | 12.34525 | -69.91368 | 9255 ft | 291 kts | 287° |
| 2026-05-06 01:38 | 12.35160 | -69.93323 | 8940 ft | 290 kts | 288° |
| 2026-05-06 01:38 | 12.35795 | -69.95270 | 8629 ft | 288 kts | 288° |
| 2026-05-06 01:38 | 12.36425 | -69.97206 | 8305 ft | 286 kts | 288° |
| 2026-05-06 01:38 | 12.36840 | -69.98481 | 8108 ft | 285 kts | 288° |
| 2026-05-06 01:39 | 12.37673 | -70.01044 | 7704 ft | 283 kts | 288° |
| 2026-05-06 01:39 | 12.38085 | -70.02307 | 7491 ft | 282 kts | 288° |
| 2026-05-06 01:39 | 12.38703 | -70.04209 | 7178 ft | 281 kts | 288° |
| 2026-05-06 01:39 | 12.39318 | -70.06106 | 6879 ft | 280 kts | 288° |
| 2026-05-06 01:40 | 12.39930 | -70.07988 | 6587 ft | 277 kts | 288° |
| 2026-05-06 01:40 | 12.40536 | -70.09854 | 6296 ft | 276 kts | 289° |
| 2026-05-06 01:40 | 12.41139 | -70.11709 | 6007 ft | 274 kts | 289° |
| 2026-05-06 01:40 | 12.41742 | -70.13565 | 5712 ft | 273 kts | 289° |
| 2026-05-06 01:41 | 12.42341 | -70.15407 | 5417 ft | 273 kts | 289° |
| 2026-05-06 01:41 | 12.42936 | -70.17244 | 5140 ft | 271 kts | 289° |
| 2026-05-06 01:41 | 12.43522 | -70.19056 | 4934 ft | 266 kts | 290° |
| 2026-05-06 01:41 | 12.44096 | -70.20822 | 4823 ft | 257 kts | 290° |
| 2026-05-06 01:42 | 12.44816 | -70.22421 | 4704 ft | 238 kts | 313° |
| 2026-05-06 01:42 | 12.46076 | -70.23349 | 4545 ft | 213 kts | 348° |
| 2026-05-06 01:42 | 12.47451 | -70.23479 | 4413 ft | 189 kts | 14° |
| 2026-05-06 01:42 | 12.48702 | -70.23278 | 4309 ft | 176 kts | 18° |
| 2026-05-06 01:43 | 12.49876 | -70.23051 | 4190 ft | 167 kts | 20° |
| 2026-05-06 01:43 | 12.50978 | -70.22825 | 4089 ft | 158 kts | 21° |
| 2026-05-06 01:43 | 12.52045 | -70.22589 | 3995 ft | 155 kts | 22° |
| 2026-05-06 01:43 | 12.53093 | -70.22347 | 3946 ft | 154 kts | 25° |
| 2026-05-06 01:44 | 12.53952 | -70.21813 | 3771 ft | 140 kts | 58° |
| 2026-05-06 01:44 | 12.54330 | -70.20943 | 3586 ft | 133 kts | 82° |
| 2026-05-06 01:44 | 12.54345 | -70.20005 | 3453 ft | 131 kts | 95° |
| 2026-05-06 01:44 | 12.54219 | -70.19072 | 3288 ft | 132 kts | 98° |
| 2026-05-06 01:45 | 12.54051 | -70.18149 | 3089 ft | 131 kts | 99° |
| 2026-05-06 01:45 | 12.53861 | -70.17245 | 2872 ft | 128 kts | 99° |
| 2026-05-06 01:45 | 12.53663 | -70.16353 | 2694 ft | 129 kts | 100° |
| 2026-05-06 01:45 | 12.53457 | -70.15459 | 2519 ft | 131 kts | 99° |
| 2026-05-06 01:46 | 12.53247 | -70.14555 | 2336 ft | 132 kts | 99° |
| 2026-05-06 01:46 | 12.53031 | -70.13632 | 2161 ft | 134 kts | 100° |
| 2026-05-06 01:46 | 12.52811 | -70.12710 | 1978 ft | 133 kts | 100° |
| 2026-05-06 01:46 | 12.52588 | -70.11783 | 1794 ft | 135 kts | 101° |
| 2026-05-06 01:47 | 12.52365 | -70.10851 | 1621 ft | 134 kts | 100° |
| 2026-05-06 01:47 | 12.52145 | -70.09927 | 1450 ft | 134 kts | 100° |
| 2026-05-06 01:47 | 12.51924 | -70.08999 | 1271 ft | 136 kts | 101° |
| 2026-05-06 01:47 | 12.51694 | -70.08037 | 1080 ft | 142 kts | 101° |
| 2026-05-06 01:48 | 12.51461 | -70.07045 | 895 ft | 143 kts | 100° |
| 2026-05-06 01:48 | 12.51239 | -70.06058 | 717 ft | 141 kts | 101° |
| 2026-05-06 01:48 | 12.51006 | -70.05089 | 515 ft | 140 kts | 102° |
| 2026-05-06 01:48 | 12.50762 | -70.04122 | 331 ft | 141 kts | 101° |
| 2026-05-06 01:49 | 12.50528 | -70.03140 | 144 ft | 142 kts | 102° |
| 2026-05-06 01:49 | 12.50297 | -70.02177 | 43 ft | 132 kts | 103° |
| 2026-05-06 01:49 | 12.50124 | -70.01455 | 49 ft | 67 kts | 104° |
| 2026-05-06 01:49 | 12.50035 | -70.01079 | 52 ft | 35 kts | 98° |
| 2026-05-06 01:50 | 12.50102 | -70.01003 | 46 ft | 12 kts | 13° |
| 2026-05-06 01:50 | 12.50138 | -70.00995 | 49 ft | 2 kts | 12° |
| 2026-05-06 01:50 | 12.50170 | -70.00988 | 50 ft | 7 kts | 12° |
| 2026-05-06 01:50 | 12.50226 | -70.00957 | 49 ft | 11 kts | 52° |
| 2026-05-06 01:51 | 12.50217 | -70.00869 | 49 ft | 14 kts | 106° |
| 2026-05-06 01:51 | 12.50192 | -70.00765 | 49 ft | 15 kts | 109° |
| 2026-05-06 01:51 | 12.50214 | -70.00713 | 49 ft | 6 kts | 9° |
| 2026-05-06 01:51 | 12.50229 | -70.00710 | 49 ft | 1 kts | 11° |
| 2026-05-06 01:52 | 12.50245 | -70.00706 | 49 ft | 2 kts | 13° |
| 2026-05-06 01:52 | 12.50248 | -70.00705 | 49 ft | 1 kts | 13° |
| 2026-05-06 01:52 | 12.50256 | -70.00703 | 49 ft | 0 kts | 13° |
| 2026-05-06 01:52 | 12.50257 | -70.00703 | 49 ft | 0 kts | 13° |